KHBI

Details ICAO KHBI
Name Asheboro Rgnl
Region United States
Timezone America/New_York (UTC-4.0)
Plans Departing 0
Arriving 4
Stats Elevation 673 ft / 205 m (AMSL)
Location 35.654528° -79.894738°
Runways 1
Magnetic Variation 8.467° W
Sunrise 2018-05-26 10:09:02 UTC / 2018-05-26 06:09:02 Local
Sunset 2018-05-27 00:27:08 UTC / 2018-05-26 20:27:08 Local
Advertisement - Login to hide

Runways

ID Width Length Bearing (true) Bearing (mag) Surface Threshold Offset Overrun Length
03 100 ft / 30 m 5,512 ft / 1,680 m 21.47° 29.94° Asphalt 0 ft / 0 m 0 ft / 0 m
21 100 ft / 30 m 5,512 ft / 1,680 m 201.47° 209.94° Asphalt 0 ft / 0 m 0 ft / 0 m

Map

Weather


0- 5 10 15 20 25 30 35+ Temperature / ° C

Clouds and Precipitation
Forecast for 2018-05-26 12:00 UTC. Updated 4 hours ago

Ground ~20,000 ft ~40,000 ft Winds

METAR

KHBI 261540Z AUTO 20007KT 7SM -RA BKN017 OVC023 23/21 A3002 RMK AO2 T02340210

TAF

Not found

Frequencies

Recorded 119.27 MHz AWOS 3
Approach 118.50 MHz GREENSBORO APP/DEP
Unicom 122.80 MHz CTAF/UNICOM
Warning: Do not use this data for real-world aviation or navigation. No guarantee of current accuracy is given.